| Date | Time | Temp. (oF) | Dew Point (oF) | Rel. Hum. (%) | Press. (in.) | Wind Dir. | Wind Speed (mph) | Hourly Rainfall (in.) |
|
|---|---|---|---|---|---|---|---|---|---|
| 1 | 02/16 | 00:00 | 33 | 17 | 53 | 29.59 | NW | 18 | 0.00 |
| 2 | 02/15 | 23:00 | 33 | 18 | 55 | 29.58 | NW | 9 | 0.00 |
| 3 | 02/15 | 22:00 | 34 | 19 | 56 | 29.57 | NW | 12 | 0.00 |
| 4 | 02/15 | 21:00 | 34 | 21 | 59 | 29.56 | NW | 9 | 0.00 |
| 5 | 02/15 | 20:00 | 34 | 20 | 58 | 29.53 | NW | 7 | 0.00 |
| 6 | 02/15 | 19:00 | 36 | 20 | 54 | 29.51 | NW | 8 | 0.00 |
| 7 | 02/15 | 18:00 | 38 | 19 | 48 | 29.48 | NW | 13 | 0.00 |
| 8 | 02/15 | 17:00 | 39 | 19 | 45 | 29.45 | NW | 12 | 0.00 |
| 9 | 02/15 | 16:00 | 41 | 18 | 41 | 29.43 | NW | 8 | 0.00 |
| 10 | 02/15 | 15:00 | 41 | 21 | 45 | 29.43 | NW | 9 | 0.00 |
| 11 | 02/15 | 14:00 | 43 | 29 | 58 | 29.40 | NW | 10 | 0.00 |
| 12 | 02/15 | 13:00 | 43 | 30 | 60 | 29.40 | NW | 8 | 0.00 |
| 13 | 02/15 | 12:00 | 48 | 30 | 51 | 29.39 | NW | 8 | 0.00 |
| 14 | 02/15 | 11:00 | 43 | 32 | 65 | 29.42 | NW | 3 | 0.00 |
| 15 | 02/15 | 10:00 | 39 | 29 | 68 | 29.44 | NW | 2 | 0.00 |
| 16 | 02/15 | 09:00 | 37 | 28 | 71 | 29.47 | NW | 3 | 0.00 |
| 17 | 02/15 | 08:00 | 31 | 27 | 88 | 29.48 | NW | 0 | 0.00 |
| 18 | 02/15 | 07:00 | 32 | 26 | 79 | 29.50 | NW | 1 | 0.00 |
| 19 | 02/15 | 06:00 | 32 | 25 | 77 | 29.52 | NW | 2 | 0.00 |
| 20 | 02/15 | 05:00 | 30 | 26 | 85 | 29.54 | NW | 0 | 0.00 |
| 21 | 02/15 | 04:00 | 31 | 25 | 80 | 29.57 | NW | 0 | 0.00 |
| 22 | 02/15 | 03:00 | 32 | 26 | 79 | 29.59 | NW | 0 | 0.00 |
| 23 | 02/15 | 02:00 | 32 | 25 | 77 | 29.62 | NW | 0 | 0.00 |
| 24 | 02/15 | 01:00 | 34 | 24 | 69 | 29.64 | NW | 1 | 0.00 |